createdAt,value
2023-02-18T00:00:15.817Z,71.07
2023-02-18T00:05:18.785Z,71.17
2023-02-18T00:10:21.582Z,70.91
2023-02-18T00:15:24.405Z,71.05
2023-02-18T00:20:27.325Z,71.12
2023-02-18T00:25:30.400Z,71.30
2023-02-18T00:30:33.093Z,71.27
2023-02-18T00:35:36.001Z,71.56
2023-02-18T00:40:39.614Z,71.24
2023-02-18T00:45:42.307Z,71.64
2023-02-18T00:50:45.452Z,71.64
2023-02-18T00:55:50.571Z,71.66
2023-02-18T01:00:53.499Z,72.02
2023-02-18T01:05:56.266Z,71.95
2023-02-18T01:10:59.589Z,71.78
2023-02-18T01:16:02.315Z,71.66
2023-02-18T01:21:08.936Z,71.75
2023-02-18T01:26:12.855Z,72.09
2023-02-18T01:31:17.580Z,71.72
2023-02-18T01:36:20.891Z,71.99
2023-02-18T01:41:23.751Z,72.28
2023-02-18T01:46:26.452Z,72.36
2023-02-18T01:51:32.443Z,72.31
2023-02-18T01:57:00.930Z,72.42
2023-02-18T02:02:04.004Z,72.26
2023-02-18T02:07:06.929Z,72.01
2023-02-18T02:12:15.791Z,71.83
2023-02-18T02:17:35.461Z,72.25
2023-02-18T02:23:15.440Z,72.36
2023-02-18T02:28:51.562Z,72.17
2023-02-18T02:34:00.345Z,72.76
2023-02-18T02:39:27.240Z,72.19
2023-02-18T02:44:40.184Z,72.45
2023-02-18T02:49:42.679Z,72.46
2023-02-18T02:54:45.526Z,72.20
2023-02-18T02:59:53.163Z,71.95
2023-02-18T03:05:29.929Z,71.35
2023-02-18T03:10:48.969Z,71.99
2023-02-18T03:16:05.145Z,71.69
2023-02-18T03:21:26.464Z,71.95
2023-02-18T03:26:31.198Z,71.45
2023-02-18T03:31:35.465Z,71.58
2023-02-18T03:36:38.923Z,71.45
2023-02-18T03:41:43.056Z,71.56
2023-02-18T03:46:46.296Z,71.11
2023-02-18T03:51:49.382Z,70.53
2023-02-18T03:56:52.149Z,70.65
2023-02-18T04:01:54.864Z,70.46
2023-02-18T04:06:57.664Z,70.19
2023-02-18T04:12:00.407Z,70.43
2023-02-18T04:17:03.106Z,70.18
2023-02-18T04:22:05.822Z,69.97
2023-02-18T04:27:08.747Z,69.76
2023-02-18T04:32:11.640Z,69.38
2023-02-18T04:37:14.381Z,69.57
2023-02-18T04:42:17.079Z,69.36
2023-02-18T04:47:19.784Z,69.60
2023-02-18T04:52:22.494Z,70.07
2023-02-18T04:57:25.175Z,70.54
2023-02-18T05:02:27.811Z,70.54
2023-02-18T05:07:30.486Z,70.47
2023-02-18T05:12:33.245Z,70.27
2023-02-18T05:17:36.185Z,70.34
2023-02-18T05:22:39.481Z,70.18
2023-02-18T05:27:42.149Z,70.03
2023-02-18T05:32:44.862Z,70.07
2023-02-18T05:37:47.539Z,69.59
2023-02-18T05:42:50.304Z,69.90
2023-02-18T05:47:52.986Z,69.84
2023-02-18T05:52:55.739Z,69.78
2023-02-18T05:57:58.490Z,70.01
2023-02-18T06:03:01.304Z,70.00
2023-02-18T06:08:04.111Z,69.64
2023-02-18T06:13:11.581Z,69.73
2023-02-18T06:18:14.646Z,68.83
2023-02-18T06:23:18.786Z,67.81
2023-02-18T06:28:21.676Z,67.63
2023-02-18T06:33:24.659Z,66.63
2023-02-18T06:38:27.700Z,66.57
2023-02-18T06:43:30.540Z,65.95
2023-02-18T06:48:36.084Z,66.35
2023-02-18T06:53:38.767Z,66.08
2023-02-18T06:58:42.933Z,66.61
2023-02-18T07:03:45.466Z,66.55
2023-02-18T07:08:48.192Z,65.97
2023-02-18T07:13:53.709Z,66.46
2023-02-18T07:18:56.480Z,66.48
2023-02-18T07:23:59.279Z,66.40
2023-02-18T07:29:01.956Z,65.38
2023-02-18T07:34:04.714Z,64.82
2023-02-18T07:39:07.458Z,64.40
2023-02-18T07:44:10.199Z,63.95
2023-02-18T07:49:15.633Z,63.61
2023-02-18T07:54:21.034Z,63.33
2023-02-18T07:59:23.984Z,62.56
2023-02-18T08:04:26.701Z,61.61
2023-02-18T08:09:29.522Z,60.68
2023-02-18T08:14:32.258Z,60.41
2023-02-18T08:19:35.040Z,59.63
2023-02-18T08:24:40.472Z,60.05
2023-02-18T08:29:43.165Z,60.41
2023-02-18T08:34:45.880Z,60.69
2023-02-18T08:39:48.640Z,60.70
2023-02-18T08:44:51.277Z,60.76
2023-02-18T08:49:54.693Z,61.34
2023-02-18T08:54:57.435Z,61.52
2023-02-18T09:00:00.171Z,62.07
2023-02-18T09:05:02.932Z,62.29
2023-02-18T09:10:10.469Z,62.82
2023-02-18T09:15:16.097Z,62.63
2023-02-18T09:20:20.227Z,63.06
2023-02-18T09:25:22.973Z,62.78
2023-02-18T09:30:25.955Z,63.44
2023-02-18T09:35:30.984Z,63.04
2023-02-18T09:40:39.048Z,63.12
2023-02-18T09:45:43.237Z,62.77
2023-02-18T09:50:53.086Z,63.11
2023-02-18T09:55:57.599Z,62.81
2023-02-18T10:01:14.468Z,62.82
2023-02-18T10:06:22.716Z,62.59
2023-02-18T10:11:32.555Z,63.03
2023-02-18T10:16:37.016Z,63.39
2023-02-18T10:21:39.532Z,63.70
2023-02-18T10:26:42.918Z,64.00
2023-02-18T10:32:09.551Z,64.37
2023-02-18T10:37:24.336Z,64.50
2023-02-18T10:42:40.680Z,65.12
2023-02-18T10:47:55.657Z,64.88
2023-02-18T10:53:03.337Z,65.30
2023-02-18T10:58:24.631Z,65.22
2023-02-18T11:03:48.563Z,65.68
2023-02-18T11:08:51.253Z,65.77
2023-02-18T11:14:00.401Z,65.99
2023-02-18T11:19:04.784Z,65.86
2023-02-18T11:24:10.535Z,65.72
2023-02-18T11:29:21.771Z,66.60
2023-02-18T11:34:28.963Z,66.86
2023-02-18T11:39:32.744Z,66.77
2023-02-18T11:44:59.642Z,66.72
2023-02-18T11:50:11.569Z,67.29
2023-02-18T11:55:20.866Z,67.15
2023-02-18T12:00:45.834Z,67.29
2023-02-18T12:05:49.475Z,67.21
2023-02-18T12:10:55.210Z,67.48
2023-02-18T12:16:23.914Z,67.06
2023-02-18T12:21:29.646Z,67.71
2023-02-18T12:26:55.110Z,67.82
2023-02-18T12:32:10.868Z,68.37
2023-02-18T12:37:51.603Z,68.51
2023-02-18T12:43:07.940Z,68.78
2023-02-18T12:48:32.842Z,69.03
2023-02-18T12:53:41.435Z,69.07
2023-02-18T12:58:51.147Z,69.09
2023-02-18T13:04:12.656Z,68.63
2023-02-18T13:09:40.166Z,68.37
2023-02-18T13:14:56.290Z,68.58
2023-02-18T13:20:07.913Z,68.79
2023-02-18T13:25:13.872Z,68.69
2023-02-18T13:30:28.018Z,68.74
2023-02-18T13:35:52.184Z,69.29
2023-02-18T13:40:56.753Z,69.32
2023-02-18T13:46:10.152Z,68.98
2023-02-18T13:51:18.192Z,69.01
2023-02-18T13:56:22.379Z,69.44
2023-02-18T14:01:42.303Z,69.08
2023-02-18T14:07:25.232Z,69.81
2023-02-18T14:12:57.441Z,69.79
2023-02-18T14:18:15.259Z,69.64
2023-02-18T14:23:21.537Z,70.27
2023-02-18T14:28:39.354Z,70.66
2023-02-18T14:34:08.509Z,70.87
2023-02-18T14:39:29.784Z,70.74
2023-02-18T14:45:00.272Z,71.04
2023-02-18T14:50:04.920Z,70.69
2023-02-18T14:55:17.428Z,70.85
2023-02-18T15:00:32.820Z,71.45
2023-02-18T15:05:38.643Z,70.89
2023-02-18T15:10:58.557Z,69.93
2023-02-18T15:16:04.403Z,69.79
2023-02-18T15:21:20.345Z,69.62
2023-02-18T15:26:23.116Z,69.51
2023-02-18T15:31:31.760Z,68.94
2023-02-18T15:36:50.815Z,68.91
2023-02-18T15:42:00.060Z,68.77
2023-02-18T15:47:10.772Z,69.29
2023-02-18T15:52:16.298Z,69.55
2023-02-18T15:57:19.754Z,69.08
2023-02-18T16:02:25.108Z,68.72
2023-02-18T16:07:30.515Z,67.92
2023-02-18T16:12:34.060Z,67.66
2023-02-18T16:17:37.240Z,67.26
2023-02-18T16:22:51.062Z,66.87
2023-02-18T16:28:24.375Z,66.40
2023-02-18T16:33:29.440Z,65.94
2023-02-18T16:38:32.274Z,65.97
2023-02-18T16:43:35.068Z,65.52
2023-02-18T16:48:41.001Z,65.34
2023-02-18T16:53:44.524Z,65.32
2023-02-18T16:58:47.259Z,65.35
2023-02-18T17:03:50.100Z,64.95
2023-02-18T17:08:53.305Z,64.29
2023-02-18T17:13:58.721Z,64.17
2023-02-18T17:19:01.576Z,64.06
2023-02-18T17:24:04.880Z,64.17
2023-02-18T17:29:07.711Z,64.09
2023-02-18T17:34:15.344Z,64.16
2023-02-18T17:39:18.625Z,64.12
2023-02-18T17:44:24.082Z,63.74
2023-02-18T17:49:26.773Z,63.72
2023-02-18T17:54:29.552Z,63.29
2023-02-18T17:59:32.480Z,63.93
2023-02-18T18:04:35.177Z,63.54
2023-02-18T18:09:38.043Z,64.20
2023-02-18T18:14:41.584Z,64.06
2023-02-18T18:19:44.203Z,63.62
2023-02-18T18:24:47.052Z,64.04
2023-02-18T18:29:49.896Z,64.33
2023-02-18T18:34:52.732Z,63.97
2023-02-18T18:39:55.473Z,64.00
2023-02-18T18:45:00.850Z,64.39
2023-02-18T18:50:03.555Z,64.55
2023-02-18T18:55:19.208Z,65.24
2023-02-18T19:00:34.330Z,64.86
2023-02-18T19:05:39.421Z,65.40
2023-02-18T19:10:44.125Z,65.71
2023-02-18T19:15:47.398Z,65.74
2023-02-18T19:20:50.186Z,65.46
2023-02-18T19:25:52.902Z,65.67
2023-02-18T19:30:55.962Z,65.78
2023-02-18T19:35:58.705Z,65.73
2023-02-18T19:41:15.054Z,65.64
2023-02-18T19:46:19.029Z,65.54
2023-02-18T19:51:21.951Z,65.59
2023-02-18T19:56:25.416Z,65.71
2023-02-18T20:01:28.205Z,66.53
2023-02-18T20:06:31.028Z,67.99
2023-02-18T20:11:33.699Z,68.93
2023-02-18T20:16:36.580Z,70.35
2023-02-18T20:21:39.557Z,71.01
2023-02-18T20:26:42.207Z,71.88
2023-02-18T20:31:45.084Z,72.57
2023-02-18T20:36:50.137Z,72.57
2023-02-18T20:41:52.876Z,73.26
2023-02-18T20:46:55.623Z,73.54
2023-02-18T20:51:58.354Z,74.21
2023-02-18T20:57:02.211Z,74.51
2023-02-18T21:02:05.186Z,74.84
2023-02-18T21:07:07.900Z,75.18
2023-02-18T21:12:11.379Z,74.89
2023-02-18T21:17:14.216Z,75.40
2023-02-18T21:22:16.975Z,75.59
2023-02-18T21:27:19.718Z,75.80
2023-02-18T21:32:22.599Z,76.18
2023-02-18T21:37:25.384Z,76.79
2023-02-18T21:42:28.118Z,77.17
2023-02-18T21:47:30.847Z,77.31
2023-02-18T21:52:34.475Z,78.12
2023-02-18T21:57:37.519Z,78.23
2023-02-18T22:02:40.201Z,78.28
2023-02-18T22:07:42.838Z,78.65
2023-02-18T22:12:45.790Z,79.00
2023-02-18T22:17:48.439Z,79.25
2023-02-18T22:22:51.158Z,79.67
2023-02-18T22:27:53.870Z,79.57
2023-02-18T22:32:56.555Z,80.05
2023-02-18T22:37:59.382Z,79.77
2023-02-18T22:43:02.077Z,79.80
2023-02-18T22:48:05.166Z,80.09
2023-02-18T22:53:07.881Z,80.12
2023-02-18T22:58:10.576Z,79.80
2023-02-18T23:03:13.274Z,80.05
2023-02-18T23:08:16.399Z,79.92
2023-02-18T23:13:19.123Z,79.45
2023-02-18T23:18:21.897Z,79.20
2023-02-18T23:23:24.557Z,79.36
2023-02-18T23:28:27.919Z,79.03
2023-02-18T23:33:30.681Z,78.80
2023-02-18T23:38:33.368Z,78.76
2023-02-18T23:43:36.013Z,78.91
2023-02-18T23:48:38.740Z,78.67
2023-02-18T23:53:42.063Z,78.43
2023-02-18T23:58:46.800Z,78.56
